Ellen Gowan, Pennsylvania
Current Conditions -  °F | °C
As of 9:15 AM on Friday 24 Oct 2014 (Local Time) from KHZL Reporting Station
Overcast Overcast  
Wind Chill: 50°   Ceiling: 1700
Heat Index: 50°   Visibility: 10mi
Dew Point: 43°   Wind: 13mph
Humidity: 76%   Direction: 300°WNW
Pressure: 29.92"   Gusts: 20mph
Location:  40.8208°N, 76.1672°W
Report Text: KHZL 241315Z AUTO 30011G17KT 10SM OVC017 10/06 A2992 RMK AO2
Loading
Personal Weather Stations






























Interactive Weather Map
Tropical Storm Tracking
New forecast layout! Learn more

10-Day Weather Forecast

Advertisements
Track Severe Weather on mobile